createdAt,value
2023-01-18T00:00:40.233Z,13.23
2023-01-18T00:03:11.359Z,12.45
2023-01-18T00:05:43.899Z,12.43
2023-01-18T00:08:12.641Z,14.32
2023-01-18T00:10:40.047Z,12.82
2023-01-18T00:13:06.869Z,10.90
2023-01-18T00:15:34.986Z,10.27
2023-01-18T00:18:02.976Z,14.25
2023-01-18T00:20:30.763Z,12.63
2023-01-18T00:23:00.222Z,12.02
2023-01-18T00:25:28.559Z,13.55
2023-01-18T00:27:55.761Z,13.50
2023-01-18T00:30:27.051Z,14.07
2023-01-18T00:32:58.893Z,12.73
2023-01-18T00:35:26.190Z,14.85
2023-01-18T00:37:53.881Z,10.90
2023-01-18T00:40:23.638Z,10.15
2023-01-18T00:43:08.834Z,9.25
2023-01-18T00:45:35.615Z,9.30
2023-01-18T00:48:02.709Z,8.95
2023-01-18T00:50:29.683Z,10.20
2023-01-18T00:52:58.613Z,11.48
2023-01-18T00:55:26.411Z,12.15
2023-01-18T00:57:53.350Z,11.50
2023-01-18T01:00:24.281Z,14.07
2023-01-18T01:02:51.726Z,12.40
2023-01-18T01:05:44.582Z,10.90
2023-01-18T01:08:17.424Z,9.15
2023-01-18T01:10:49.822Z,8.57
2023-01-18T01:13:38.484Z,9.00
2023-01-18T01:16:29.045Z,8.43
2023-01-18T01:19:15.452Z,8.88
2023-01-18T01:22:00.990Z,8.55
2023-01-18T01:24:46.489Z,8.23
2023-01-18T01:27:13.886Z,7.68
2023-01-18T01:29:40.943Z,7.70
2023-01-18T01:32:07.980Z,9.13
2023-01-18T01:34:34.889Z,8.82
2023-01-18T01:37:02.969Z,7.93
2023-01-18T01:39:30.481Z,8.02
2023-01-18T01:41:57.264Z,9.68
2023-01-18T01:44:24.469Z,9.60
2023-01-18T01:46:52.763Z,9.00
2023-01-18T01:49:40.072Z,9.25
2023-01-18T01:52:14.771Z,8.63
2023-01-18T01:54:53.687Z,9.27
2023-01-18T01:57:46.748Z,8.63
2023-01-18T02:00:23.099Z,8.13
2023-01-18T02:03:03.345Z,7.85
2023-01-18T02:05:33.907Z,7.85
2023-01-18T02:08:03.192Z,7.80
2023-01-18T02:10:30.796Z,7.35
2023-01-18T02:12:59.117Z,8.30
2023-01-18T02:15:36.563Z,7.40
2023-01-18T02:18:10.808Z,7.68
2023-01-18T02:21:08.586Z,6.93
2023-01-18T02:24:16.691Z,7.57
2023-01-18T02:27:05.850Z,7.53
2023-01-18T02:29:47.456Z,6.82
2023-01-18T02:32:27.535Z,6.80
2023-01-18T02:35:14.025Z,6.30
2023-01-18T02:37:40.637Z,6.40
2023-01-18T02:40:23.889Z,7.72
2023-01-18T02:43:09.198Z,7.25
2023-01-18T02:46:04.717Z,6.82
2023-01-18T02:48:41.499Z,6.88
2023-01-18T02:51:08.643Z,6.97
2023-01-18T02:53:41.590Z,7.32
2023-01-18T02:56:16.705Z,6.60
2023-01-18T02:58:57.369Z,6.38
2023-01-18T03:01:44.118Z,6.97
2023-01-18T03:04:28.953Z,8.55
2023-01-18T03:07:10.551Z,6.88
2023-01-18T03:09:38.321Z,6.78
2023-01-18T03:12:26.875Z,6.68
2023-01-18T03:15:08.528Z,5.95
2023-01-18T03:17:44.646Z,5.82
2023-01-18T03:20:18.401Z,7.22
2023-01-18T03:23:30.010Z,6.43
2023-01-18T03:25:59.224Z,6.63
2023-01-18T03:28:51.582Z,6.70
2023-01-18T03:31:58.919Z,6.28
2023-01-18T03:35:07.993Z,5.85
2023-01-18T03:37:41.064Z,5.72
2023-01-18T03:40:18.241Z,7.80
2023-01-18T03:43:03.540Z,7.05
2023-01-18T03:45:37.886Z,6.82
2023-01-18T03:48:07.119Z,5.57
2023-01-18T03:51:08.238Z,6.00
2023-01-18T03:53:40.463Z,5.20
2023-01-18T03:56:23.773Z,5.63
2023-01-18T03:58:56.321Z,5.50
2023-01-18T04:01:23.424Z,5.28
2023-01-18T04:03:50.201Z,5.80
2023-01-18T04:06:17.061Z,5.53
2023-01-18T04:08:43.743Z,4.70
2023-01-18T04:11:10.471Z,5.90
2023-01-18T04:13:37.145Z,5.60
2023-01-18T04:16:04.837Z,5.10
2023-01-18T04:18:31.688Z,4.85
2023-01-18T04:20:58.827Z,4.90
2023-01-18T04:23:25.868Z,4.93
2023-01-18T04:25:52.496Z,4.88
2023-01-18T04:28:25.241Z,5.43
2023-01-18T04:30:53.263Z,5.47
2023-01-18T04:33:20.645Z,5.90
2023-01-18T04:35:48.185Z,4.75
2023-01-18T04:38:15.578Z,5.10
2023-01-18T04:40:42.835Z,5.32
2023-01-18T04:43:09.539Z,5.63
2023-01-18T04:45:36.372Z,5.05
2023-01-18T04:48:03.246Z,5.30
2023-01-18T04:50:30.171Z,5.07
2023-01-18T04:52:58.168Z,4.55
2023-01-18T04:55:25.193Z,4.80
2023-01-18T04:57:57.732Z,5.63
2023-01-18T05:00:24.612Z,5.35
2023-01-18T05:02:51.373Z,4.95
2023-01-18T05:05:18.231Z,5.13
2023-01-18T05:07:44.909Z,4.80
2023-01-18T05:10:12.350Z,4.43
2023-01-18T05:12:39.174Z,4.63
2023-01-18T05:15:06.252Z,4.72
2023-01-18T05:17:35.150Z,4.97
2023-01-18T05:20:12.557Z,5.05
2023-01-18T05:22:39.342Z,5.13
2023-01-18T05:25:06.795Z,4.90
2023-01-18T05:27:34.075Z,5.85
2023-01-18T05:30:01.914Z,5.78
2023-01-18T05:32:28.662Z,4.68
2023-01-18T05:34:55.250Z,6.00
2023-01-18T05:37:21.900Z,5.05
2023-01-18T05:39:48.534Z,7.05
2023-01-18T05:42:15.191Z,6.75
2023-01-18T05:44:41.818Z,5.47
2023-01-18T05:47:08.716Z,4.97
2023-01-18T05:49:35.333Z,5.18
2023-01-18T05:52:04.192Z,5.53
2023-01-18T05:54:30.853Z,6.57
2023-01-18T05:56:58.303Z,5.50
2023-01-18T05:59:25.044Z,5.28
2023-01-18T06:01:51.801Z,5.50
2023-01-18T06:04:18.628Z,6.10
2023-01-18T06:06:45.286Z,6.65
2023-01-18T06:09:11.989Z,5.78
2023-01-18T06:11:38.683Z,7.30
2023-01-18T06:14:05.627Z,7.90
2023-01-18T06:16:32.417Z,6.53
2023-01-18T06:18:59.070Z,7.55
2023-01-18T06:21:26.227Z,8.25
2023-01-18T06:23:52.861Z,6.70
2023-01-18T06:26:19.594Z,8.68
2023-01-18T06:28:46.251Z,10.13
2023-01-18T06:31:12.922Z,7.85
2023-01-18T06:33:39.797Z,7.78
2023-01-18T06:36:06.923Z,7.78
2023-01-18T06:38:33.903Z,7.68
2023-01-18T06:41:00.553Z,6.47
2023-01-18T06:43:27.213Z,6.72
2023-01-18T06:45:55.503Z,6.90
2023-01-18T06:48:24.136Z,6.97
2023-01-18T06:50:54.416Z,8.85
2023-01-18T06:53:21.346Z,10.18
2023-01-18T06:55:59.034Z,9.77
2023-01-18T06:58:26.684Z,7.30
2023-01-18T07:00:58.070Z,6.38
2023-01-18T07:03:25.807Z,8.13
2023-01-18T07:05:58.704Z,8.07
2023-01-18T07:08:26.893Z,8.63
2023-01-18T07:10:54.450Z,7.45
2023-01-18T07:13:22.040Z,9.65
2023-01-18T07:16:00.768Z,6.80
2023-01-18T07:18:29.527Z,6.00
2023-01-18T07:21:03.478Z,6.32
2023-01-18T07:23:30.361Z,6.80
2023-01-18T07:26:08.595Z,8.23
2023-01-18T07:28:36.269Z,7.47
2023-01-18T07:31:04.003Z,7.18
2023-01-18T07:33:31.231Z,6.50
2023-01-18T07:35:58.448Z,5.82
2023-01-18T07:38:25.907Z,6.40
2023-01-18T07:41:02.920Z,9.43
2023-01-18T07:43:31.762Z,7.93
2023-01-18T07:45:59.421Z,8.32
2023-01-18T07:48:27.018Z,6.05
2023-01-18T07:50:58.446Z,5.78
2023-01-18T07:53:26.340Z,5.47
2023-01-18T07:55:53.278Z,9.13
2023-01-18T07:58:20.475Z,8.60
2023-01-18T08:00:47.294Z,7.43
2023-01-18T08:03:15.853Z,6.80
2023-01-18T08:05:43.997Z,5.28
2023-01-18T08:08:11.920Z,5.85
2023-01-18T08:10:39.306Z,5.80
2023-01-18T08:13:09.036Z,8.77
2023-01-18T08:15:37.165Z,8.50
2023-01-18T08:18:05.383Z,7.80
2023-01-18T08:20:32.745Z,8.02
2023-01-18T08:23:00.678Z,9.27
2023-01-18T08:25:29.785Z,7.07
2023-01-18T08:28:00.860Z,6.13
2023-01-18T08:30:33.790Z,5.63
2023-01-18T08:33:02.887Z,6.38
2023-01-18T08:35:49.677Z,6.13
2023-01-18T08:38:16.776Z,8.30
2023-01-18T08:40:43.581Z,11.00
2023-01-18T08:43:11.728Z,8.32
2023-01-18T08:45:38.416Z,7.10
2023-01-18T08:48:10.755Z,6.72
2023-01-18T08:50:39.212Z,6.70
2023-01-18T08:53:08.541Z,6.03
2023-01-18T08:55:36.560Z,6.25
2023-01-18T08:58:03.806Z,6.80
2023-01-18T09:00:30.685Z,6.07
2023-01-18T09:02:58.868Z,6.25
2023-01-18T09:05:27.097Z,6.97
2023-01-18T09:07:54.851Z,8.20
2023-01-18T09:10:22.297Z,7.50
2023-01-18T09:12:48.935Z,8.55
2023-01-18T09:15:15.709Z,10.90
2023-01-18T09:17:42.377Z,11.80
2023-01-18T09:20:11.993Z,10.00
2023-01-18T09:22:39.140Z,9.30
2023-01-18T09:25:06.274Z,7.35
2023-01-18T09:27:33.553Z,7.57
2023-01-18T09:30:00.273Z,8.32
2023-01-18T09:32:27.483Z,8.10
2023-01-18T09:34:54.857Z,8.93
2023-01-18T09:37:21.978Z,9.90
2023-01-18T09:39:52.225Z,10.30
2023-01-18T09:42:28.512Z,11.15
2023-01-18T09:44:59.781Z,12.40
2023-01-18T09:47:35.027Z,14.48
2023-01-18T09:50:13.315Z,13.02
2023-01-18T09:52:57.206Z,13.38
2023-01-18T09:55:47.662Z,12.70
2023-01-18T09:58:41.497Z,10.48
2023-01-18T10:01:16.221Z,7.50
2023-01-18T10:04:05.023Z,7.68
2023-01-18T10:06:45.846Z,7.35
2023-01-18T10:09:16.128Z,8.55
2023-01-18T10:11:47.425Z,7.72
2023-01-18T10:14:38.354Z,6.50
2023-01-18T10:17:14.516Z,6.90
2023-01-18T10:19:41.518Z,8.45
2023-01-18T10:22:38.424Z,8.23
2023-01-18T10:25:29.063Z,8.23
2023-01-18T10:27:58.874Z,7.65
2023-01-18T10:30:45.450Z,7.70
2023-01-18T10:33:25.656Z,7.85
2023-01-18T10:36:00.428Z,7.90
2023-01-18T10:38:29.349Z,7.40
2023-01-18T10:40:59.287Z,7.32
2023-01-18T10:43:28.690Z,9.02
2023-01-18T10:45:56.276Z,11.85
2023-01-18T10:48:32.337Z,10.20
2023-01-18T10:51:03.365Z,9.82
2023-01-18T10:53:36.477Z,8.80
2023-01-18T10:56:12.642Z,9.02
2023-01-18T10:58:57.671Z,9.50
2023-01-18T11:01:33.519Z,7.80
2023-01-18T11:04:22.107Z,9.77
2023-01-18T11:06:51.704Z,9.32
2023-01-18T11:09:42.709Z,9.95
2023-01-18T11:12:34.166Z,9.43
2023-01-18T11:15:22.181Z,10.65
2023-01-18T11:17:56.164Z,9.98
2023-01-18T11:20:34.180Z,9.75
2023-01-18T11:23:16.047Z,8.60
2023-01-18T11:25:51.195Z,8.65
2023-01-18T11:28:22.017Z,9.35
2023-01-18T11:30:54.109Z,9.70
2023-01-18T11:33:23.217Z,9.85
2023-01-18T11:35:54.968Z,8.93
2023-01-18T11:38:27.414Z,8.55
2023-01-18T11:41:21.031Z,9.10
2023-01-18T11:44:00.162Z,8.20
2023-01-18T11:46:38.968Z,8.95
2023-01-18T11:49:45.060Z,8.82
2023-01-18T11:52:42.303Z,8.65
2023-01-18T11:55:47.493Z,9.13
2023-01-18T11:58:25.331Z,9.38
2023-01-18T12:01:21.455Z,10.85
2023-01-18T12:04:00.434Z,11.05
2023-01-18T12:06:50.623Z,11.65
2023-01-18T12:09:22.998Z,13.70
2023-01-18T12:12:19.234Z,12.00
2023-01-18T12:15:19.283Z,13.00
2023-01-18T12:18:11.539Z,13.25
2023-01-18T12:20:45.540Z,11.88
2023-01-18T12:23:42.289Z,15.63
2023-01-18T12:26:46.599Z,16.70
2023-01-18T12:29:38.128Z,17.02
2023-01-18T12:32:23.335Z,13.82
2023-01-18T12:35:24.778Z,14.68
2023-01-18T12:38:07.115Z,13.55
2023-01-18T12:40:42.849Z,12.05
2023-01-18T12:43:35.503Z,15.02
2023-01-18T12:46:10.140Z,12.85
2023-01-18T12:48:53.001Z,18.92
2023-01-18T12:51:23.831Z,15.48
2023-01-18T12:53:53.474Z,13.48
2023-01-18T12:56:24.032Z,14.93
2023-01-18T12:58:59.466Z,15.23
2023-01-18T13:01:30.699Z,19.02
2023-01-18T13:04:06.002Z,16.48
2023-01-18T13:06:35.060Z,14.15
2023-01-18T13:09:06.533Z,13.95
2023-01-18T13:11:41.482Z,14.90
2023-01-18T13:14:14.805Z,13.82
2023-01-18T13:17:04.585Z,13.60
2023-01-18T13:20:00.151Z,14.40
2023-01-18T13:23:00.396Z,15.68
2023-01-18T13:25:32.272Z,15.73
2023-01-18T13:28:23.742Z,15.70
2023-01-18T13:31:01.853Z,16.65
2023-01-18T13:33:37.505Z,16.25
2023-01-18T13:36:14.177Z,15.15
2023-01-18T13:38:54.591Z,14.43
2023-01-18T13:41:26.899Z,14.55
2023-01-18T13:44:04.211Z,14.35
2023-01-18T13:46:35.206Z,14.13
2023-01-18T13:49:43.501Z,14.87
2023-01-18T13:52:30.381Z,12.70
2023-01-18T13:54:58.564Z,13.45
2023-01-18T13:57:25.221Z,16.10
2023-01-18T13:59:52.295Z,15.40
2023-01-18T14:02:27.732Z,14.88
2023-01-18T14:05:06.369Z,14.95
2023-01-18T14:07:44.171Z,15.88
2023-01-18T14:10:36.300Z,15.23
2023-01-18T14:13:05.971Z,13.95
2023-01-18T14:15:53.028Z,16.60
2023-01-18T14:18:26.682Z,16.02
2023-01-18T14:21:11.914Z,15.63
2023-01-18T14:23:45.918Z,15.20
2023-01-18T14:26:19.794Z,15.05
2023-01-18T14:28:51.619Z,14.25
2023-01-18T14:31:32.661Z,16.58
2023-01-18T14:34:34.995Z,16.55
2023-01-18T14:37:03.631Z,15.95
2023-01-18T14:39:32.477Z,18.13
2023-01-18T14:42:04.975Z,17.40
2023-01-18T14:44:56.846Z,16.40
2023-01-18T14:47:28.906Z,14.60
2023-01-18T14:49:55.732Z,14.93
2023-01-18T14:52:26.868Z,15.70
2023-01-18T14:54:55.545Z,16.70
2023-01-18T14:57:23.751Z,14.75
2023-01-18T14:59:53.387Z,15.25
2023-01-18T15:02:24.806Z,14.60
2023-01-18T15:04:52.414Z,15.18
2023-01-18T15:07:30.718Z,14.77
2023-01-18T15:09:58.577Z,15.30
2023-01-18T15:12:31.259Z,15.13
2023-01-18T15:15:06.503Z,14.32
2023-01-18T15:17:35.571Z,15.43
2023-01-18T15:20:20.507Z,12.82
2023-01-18T15:22:50.590Z,13.32
2023-01-18T15:25:26.698Z,15.30
2023-01-18T15:27:54.441Z,14.48
2023-01-18T15:30:23.819Z,12.80
2023-01-18T15:32:58.129Z,13.23
2023-01-18T15:35:25.805Z,12.90
2023-01-18T15:37:52.583Z,12.15
2023-01-18T15:40:19.337Z,11.95
2023-01-18T15:42:51.530Z,12.25
2023-01-18T15:45:30.542Z,11.70
2023-01-18T15:48:00.778Z,13.48
2023-01-18T15:50:44.335Z,13.50
2023-01-18T15:53:38.544Z,13.73
2023-01-18T15:56:14.728Z,14.05
2023-01-18T15:58:44.593Z,14.75
2023-01-18T16:01:15.810Z,12.93
2023-01-18T16:03:48.205Z,13.75
2023-01-18T16:06:22.717Z,11.02
2023-01-18T16:09:11.909Z,10.27
2023-01-18T16:11:46.386Z,8.93
2023-01-18T16:14:28.290Z,8.52
2023-01-18T16:16:57.154Z,10.27
2023-01-18T16:19:28.355Z,9.20
2023-01-18T16:22:01.506Z,9.17
2023-01-18T16:24:45.688Z,10.68
2023-01-18T16:27:21.725Z,9.20
2023-01-18T16:29:56.038Z,9.13
2023-01-18T16:32:27.591Z,10.07
2023-01-18T16:34:59.761Z,9.45
2023-01-18T16:37:26.927Z,9.70
2023-01-18T16:39:55.441Z,11.88
2023-01-18T16:42:29.551Z,10.95
2023-01-18T16:45:04.159Z,12.43
2023-01-18T16:47:30.799Z,18.20
2023-01-18T16:49:59.202Z,12.80
2023-01-18T16:52:26.261Z,12.35
2023-01-18T16:54:52.905Z,12.63
2023-01-18T16:57:21.694Z,13.73
2023-01-18T16:59:49.150Z,13.95
2023-01-18T17:02:16.046Z,16.48
2023-01-18T17:04:44.779Z,16.55
2023-01-18T17:07:11.500Z,18.17
2023-01-18T17:09:47.860Z,18.20
2023-01-18T17:12:15.798Z,14.05
2023-01-18T17:14:42.462Z,15.38
2023-01-18T17:17:10.404Z,16.30
2023-01-18T17:19:37.927Z,16.00
2023-01-18T17:22:04.996Z,14.75
2023-01-18T17:24:31.692Z,14.43
2023-01-18T17:26:58.391Z,15.77
2023-01-18T17:29:25.131Z,13.73
2023-01-18T17:31:52.974Z,16.40
2023-01-18T17:36:50.254Z,24.85
2023-01-18T17:39:17.136Z,21.13
2023-01-18T17:41:43.989Z,20.00
2023-01-18T17:44:10.664Z,18.67
2023-01-18T17:46:37.525Z,15.18
2023-01-18T17:49:04.621Z,15.82
2023-01-18T17:51:31.378Z,16.60
2023-01-18T17:54:00.828Z,19.70
2023-01-18T17:56:28.849Z,17.13
2023-01-18T17:58:55.601Z,16.83
2023-01-18T18:01:22.809Z,22.52
2023-01-18T18:03:52.162Z,18.00
2023-01-18T18:06:30.322Z,16.25
2023-01-18T18:08:57.822Z,19.60
2023-01-18T18:11:24.694Z,16.05
2023-01-18T18:13:51.397Z,14.65
2023-01-18T18:16:18.773Z,15.13
2023-01-18T18:18:46.111Z,14.13
2023-01-18T18:21:13.156Z,15.18
2023-01-18T18:23:39.894Z,14.32
2023-01-18T18:26:06.677Z,12.52
2023-01-18T18:28:34.089Z,19.02
2023-01-18T18:31:03.907Z,14.55
2023-01-18T18:33:30.638Z,18.33
2023-01-18T18:35:57.951Z,15.60
2023-01-18T18:38:26.572Z,15.57
2023-01-18T18:40:54.449Z,14.90
2023-01-18T18:43:21.387Z,14.02
2023-01-18T18:45:48.187Z,12.30
2023-01-18T18:48:14.919Z,12.77
2023-01-18T18:50:41.666Z,13.52
2023-01-18T18:53:08.433Z,11.93
2023-01-18T18:55:35.333Z,14.20
2023-01-18T18:58:02.986Z,14.50
2023-01-18T19:00:30.145Z,14.23
2023-01-18T19:03:06.111Z,12.48
2023-01-18T19:05:34.336Z,11.65
2023-01-18T19:08:03.342Z,13.70
2023-01-18T19:10:30.298Z,10.82
2023-01-18T19:12:57.877Z,11.10
2023-01-18T19:15:25.343Z,13.13
2023-01-18T19:17:52.949Z,12.75
2023-01-18T19:20:20.535Z,11.95
2023-01-18T19:22:48.118Z,13.30
2023-01-18T19:25:15.092Z,14.60
2023-01-18T19:27:42.186Z,15.52
2023-01-18T19:30:12.998Z,17.65
2023-01-18T19:32:39.958Z,14.05
2023-01-18T19:35:07.243Z,14.52
2023-01-18T19:37:34.006Z,14.05
2023-01-18T19:40:00.687Z,15.02
2023-01-18T19:42:27.370Z,16.02
2023-01-18T19:44:59.204Z,14.27
2023-01-18T19:47:26.174Z,17.60
2023-01-18T19:49:55.684Z,19.42
2023-01-18T19:52:22.414Z,18.88
2023-01-18T19:54:49.179Z,21.98
2023-01-18T19:57:16.219Z,15.95
2023-01-18T19:59:42.998Z,13.02
2023-01-18T20:02:10.436Z,11.52
2023-01-18T20:04:37.747Z,14.82
2023-01-18T20:07:04.820Z,17.63
2023-01-18T20:09:42.688Z,18.05
2023-01-18T20:12:12.378Z,14.68
2023-01-18T20:14:41.879Z,23.58
2023-01-18T20:17:11.055Z,18.15
2023-01-18T20:19:37.725Z,22.42
2023-01-18T20:22:04.451Z,19.95
2023-01-18T20:24:31.264Z,14.40
2023-01-18T20:27:14.993Z,17.73
2023-01-18T20:29:43.071Z,18.52
2023-01-18T20:32:16.160Z,19.02
2023-01-18T20:34:47.448Z,20.75
2023-01-18T20:37:15.234Z,22.20
2023-01-18T20:39:42.358Z,28.05
2023-01-18T20:42:09.277Z,29.40
2023-01-18T20:44:36.034Z,22.23
2023-01-18T20:47:03.126Z,19.80
2023-01-18T20:49:38.615Z,23.85
2023-01-18T20:52:07.413Z,25.65
2023-01-18T20:54:37.724Z,25.35
2023-01-18T20:57:10.032Z,25.95
2023-01-18T20:59:36.740Z,27.65
2023-01-18T21:02:03.845Z,30.23
2023-01-18T21:04:30.837Z,23.33
2023-01-18T21:06:57.714Z,20.38
2023-01-18T21:09:25.355Z,21.88
2023-01-18T21:11:52.128Z,26.83
2023-01-18T21:14:18.795Z,21.52
2023-01-18T21:16:45.721Z,23.10
2023-01-18T21:19:12.822Z,25.50
2023-01-18T21:21:46.236Z,25.13
2023-01-18T21:24:13.226Z,28.35
2023-01-18T21:26:40.050Z,29.45
2023-01-18T21:29:06.791Z,28.83
2023-01-18T21:31:33.587Z,24.80
2023-01-18T21:34:00.409Z,22.05
2023-01-18T21:36:27.071Z,21.70
2023-01-18T21:38:53.824Z,22.75
2023-01-18T21:41:39.288Z,18.60
2023-01-18T21:44:24.619Z,16.67
2023-01-18T21:46:52.261Z,19.90
2023-01-18T21:52:44.009Z,34.75
2023-01-18T21:55:10.802Z,29.73
2023-01-18T21:57:38.681Z,30.60
2023-01-18T22:00:06.558Z,26.90
2023-01-18T22:02:34.256Z,23.48
2023-01-18T22:05:01.534Z,25.55
2023-01-18T22:07:30.117Z,23.95
2023-01-18T22:10:05.973Z,26.20
2023-01-18T22:12:35.294Z,21.30
2023-01-18T22:15:03.155Z,24.50
2023-01-18T22:17:30.417Z,28.83
2023-01-18T22:19:57.547Z,31.92
2023-01-18T22:22:24.266Z,22.83
2023-01-18T22:24:50.906Z,20.60
2023-01-18T22:27:17.625Z,19.40
2023-01-18T22:29:44.403Z,23.02
2023-01-18T22:32:11.079Z,21.10
2023-01-18T22:34:37.747Z,23.48
2023-01-18T22:37:05.608Z,26.40
2023-01-18T22:39:32.436Z,28.45
2023-01-18T22:41:59.116Z,23.08
2023-01-18T22:44:25.798Z,21.55
2023-01-18T22:46:52.503Z,20.75
2023-01-18T22:49:19.355Z,18.50
2023-01-18T22:51:46.164Z,19.17
2023-01-18T22:54:13.346Z,17.77
2023-01-18T22:56:40.077Z,16.98
2023-01-18T22:59:08.047Z,18.88
2023-01-18T23:01:35.179Z,17.17
2023-01-18T23:04:03.928Z,15.70
2023-01-18T23:06:45.488Z,16.75
2023-01-18T23:09:14.321Z,15.63
2023-01-18T23:11:41.311Z,15.57
2023-01-18T23:14:26.545Z,15.07
2023-01-18T23:17:11.888Z,14.25
2023-01-18T23:19:38.821Z,15.02
2023-01-18T23:22:08.273Z,14.13
2023-01-18T23:24:36.827Z,14.18
2023-01-18T23:27:10.035Z,13.43
2023-01-18T23:29:37.389Z,13.40
2023-01-18T23:32:04.363Z,13.00
2023-01-18T23:34:31.055Z,13.93
2023-01-18T23:36:57.745Z,12.88
2023-01-18T23:39:43.004Z,12.85
2023-01-18T23:42:28.221Z,13.05
2023-01-18T23:45:13.747Z,13.07
2023-01-18T23:47:59.441Z,11.48
2023-01-18T23:50:44.988Z,11.38
2023-01-18T23:53:31.604Z,12.05
2023-01-18T23:55:58.913Z,11.43
2023-01-18T23:58:25.718Z,11.20
